Pagina principale
METAR-TAF:

METAR-TAF

Aeroporti :

Aeroporto di Lamezia Terme

Lamezia Terme, Italia

latitudine: 38-54N, longitudine: 016-15E, altezza: 15 m

Osservazione

Il bollettino è stato emesso 1 ora e 11 minuti fa, alle 11:50 UTC
Vento 4 kt da est
Temperature 17°C
Umidità 94%
Pressione 1022 hPa
Visibilità 10 km o più
Poco nuvoloso ad un'altezza di 1000 ft
Nubi sparse ad un'altezza di 3000 ft
Nuvoloso ad un'altezza di 6000 ft
pioviggine debole

METAR: LICA 061150Z 10004KT 9999 -DZ FEW010 SCT030 BKN060 17/16 Q1022

Ora: 14:01 (13:01 UTC)

Previsione

Il bollettino è stato emesso 2 ore e 1 minuti fa, alle 11:00 UTC
Previsione valida dal 06 alle 12 UTC al 07 alle 12 UTC
Vento 6 kt da direzioni variabili
Visibilità: 7000 m
Nubi sparse ad un'altezza di 1800 ft
Nuvoloso ad un'altezza di 4000 ft
Temporaneamente
dal 06 alle 12 UTC al 06 alle 18 UTC
rovesci di pioggia

TAF: LICA 061100Z 0612/0712 VRB06KT 7000 SCT018 BKN040 TEMPO 0612/0618 SHRA

Osservazioni e previsioni meteorologiche di più di 4000 aeroporti (messaggi METAR e TAF).

Le stazioni disponibili sono rappresentate dai dischi gialli e rossi sulla carta.

Puntare il mouse per vedere il nome della stazione.

Clicca sopra per visualizzare le osservazioni e previsioni meteorologiche.

Per cambiare la mappa : fare clic sui pulsanti verdi con una croce nera per ingrandire, il pulsante verde con un trattino per diminuire, o sulla freccia verde per le mappe adiacenti.


METAR-TAF: